Lower Makefield, Pennsylvania
Current Conditions -  °F | °C
As of 11:53 AM on Saturday 25 Oct 2014 (Local Time) from KTTN Reporting Station
Clear Clear  
Wind Chill: 63°   Ceiling: Unl
Heat Index: 63°   Visibility: 10mi
Dew Point: 41°   Wind: 7mph
Humidity: 45%   Direction: NA
Pressure: 29.83"   Gusts: NA
Location:  40.1994°N, 74.8145°W
Report Text: KTTN 251553Z VRB06KT 10SM CLR 17/05 A2983 RMK AO2 SLP097 T01720050
Loading
Personal Weather Stations






























Interactive Weather Map
Tropical Storm Tracking
New forecast layout! Learn more

10-Day Weather Forecast

Advertisements
Track Severe Weather on mobile